createdAt,value
2022-07-30T00:01:42.357Z,95092.13
2022-07-30T00:04:09.128Z,95091.91
2022-07-30T00:06:37.923Z,95097.03
2022-07-30T00:09:04.831Z,95088.94
2022-07-30T00:11:31.553Z,95080.88
2022-07-30T00:13:58.299Z,95079.28
2022-07-30T00:16:25.019Z,95088.22
2022-07-30T00:18:51.756Z,95087.75
2022-07-30T00:21:33.882Z,95081.91
2022-07-30T00:24:04.145Z,95077.13
2022-07-30T00:26:31.404Z,95079.28
2022-07-30T00:28:58.169Z,95078.16
2022-07-30T00:31:24.954Z,95085.09
2022-07-30T00:33:51.710Z,95082.66
2022-07-30T00:36:18.496Z,95069.50
2022-07-30T00:38:45.440Z,95075.16
2022-07-30T00:41:12.296Z,95080.22
2022-07-30T00:43:39.648Z,95063.84
2022-07-30T00:46:06.601Z,95077.31
2022-07-30T00:48:33.564Z,95073.38
2022-07-30T00:51:00.404Z,95077.00
2022-07-30T00:53:27.252Z,95075.16
2022-07-30T00:55:53.946Z,95068.09
2022-07-30T00:58:20.736Z,95054.34
2022-07-30T01:00:48.780Z,95065.00
2022-07-30T01:03:15.592Z,95063.47
2022-07-30T01:05:42.423Z,95064.69
2022-07-30T01:08:09.254Z,95058.28
2022-07-30T01:10:36.132Z,95056.81
2022-07-30T01:13:04.149Z,95064.94
2022-07-30T01:15:31.313Z,95056.59
2022-07-30T01:18:01.653Z,95056.44
2022-07-30T01:20:52.126Z,95055.34
2022-07-30T01:23:28.013Z,95050.28
2022-07-30T01:26:00.134Z,95057.94
2022-07-30T01:28:32.553Z,95067.91
2022-07-30T01:31:01.725Z,95058.94
2022-07-30T01:33:30.873Z,95054.22
2022-07-30T01:36:01.324Z,95062.81
2022-07-30T01:38:31.114Z,95060.50
2022-07-30T01:41:03.622Z,95060.31
2022-07-30T01:43:32.562Z,95059.31
2022-07-30T01:46:01.594Z,95054.50
2022-07-30T01:48:30.282Z,95061.72
2022-07-30T01:51:00.736Z,95052.34
2022-07-30T01:53:32.156Z,95058.56
2022-07-30T01:56:01.924Z,95061.28
2022-07-30T01:58:32.744Z,95055.81
2022-07-30T02:01:08.383Z,95061.41
2022-07-30T02:03:35.664Z,95063.22
2022-07-30T02:06:11.005Z,95055.84
2022-07-30T02:08:52.536Z,95058.72
2022-07-30T02:11:39.197Z,95060.38
2022-07-30T02:14:26.372Z,95061.28
2022-07-30T02:16:59.058Z,95052.47
2022-07-30T02:19:34.295Z,95052.19
2022-07-30T02:22:08.814Z,95044.53
2022-07-30T02:24:38.023Z,95042.22
2022-07-30T02:27:12.746Z,95042.84
2022-07-30T02:29:43.069Z,95042.25
2022-07-30T02:32:14.689Z,95048.94
2022-07-30T02:34:44.799Z,95045.81
2022-07-30T02:37:14.434Z,95045.13
2022-07-30T02:39:43.228Z,95029.09
2022-07-30T02:42:12.892Z,95034.09
2022-07-30T02:44:43.887Z,95039.09
2022-07-30T02:47:16.514Z,95043.63
2022-07-30T02:49:45.193Z,95044.28
2022-07-30T02:52:14.022Z,95045.81
2022-07-30T02:54:43.138Z,95033.81
2022-07-30T02:57:11.183Z,95031.63
2022-07-30T02:59:41.112Z,95033.28
2022-07-30T03:02:10.273Z,95037.06
2022-07-30T03:04:39.114Z,95035.06
2022-07-30T03:07:08.558Z,95029.47
2022-07-30T03:09:52.211Z,95026.53
2022-07-30T03:12:20.017Z,95032.69
2022-07-30T03:14:46.947Z,95025.31
2022-07-30T03:17:16.021Z,95019.25
2022-07-30T03:19:45.725Z,95018.22
2022-07-30T03:22:14.836Z,95025.88
2022-07-30T03:24:44.644Z,95018.09
2022-07-30T03:27:13.812Z,95023.03
2022-07-30T03:29:42.387Z,95034.09
2022-07-30T03:32:12.960Z,95024.78
2022-07-30T03:34:42.623Z,95025.06
2022-07-30T03:37:12.575Z,95042.03
2022-07-30T03:39:40.718Z,95030.22
2022-07-30T03:42:08.849Z,95039.78
2022-07-30T03:44:37.337Z,95033.69
2022-07-30T03:47:07.222Z,95041.97
2022-07-30T03:49:40.804Z,95041.75
2022-07-30T03:52:09.802Z,95028.72
2022-07-30T03:54:37.179Z,95041.47
2022-07-30T03:57:30.312Z,95040.41
2022-07-30T03:59:58.539Z,95041.91
2022-07-30T04:02:26.448Z,95046.28
2022-07-30T04:05:19.667Z,95043.03
2022-07-30T04:07:51.851Z,95049.41
2022-07-30T04:10:20.408Z,95051.31
2022-07-30T04:13:00.228Z,95047.53
2022-07-30T04:16:05.636Z,95056.00
2022-07-30T04:18:18.833Z,95054.44
2022-07-30T04:20:49.302Z,95053.44
2022-07-30T04:23:16.553Z,95054.22
2022-07-30T04:25:44.810Z,95050.31
2022-07-30T04:28:12.603Z,95053.38
2022-07-30T04:30:41.005Z,95050.94
2022-07-30T04:33:08.428Z,95049.03
2022-07-30T04:35:58.012Z,95056.47
2022-07-30T04:38:32.619Z,95055.53
2022-07-30T04:41:00.079Z,95056.66
2022-07-30T04:43:30.399Z,95059.91
2022-07-30T04:45:57.515Z,95056.84
2022-07-30T04:48:26.746Z,95059.22
2022-07-30T04:50:59.733Z,95060.59
2022-07-30T04:53:28.739Z,95061.84
2022-07-30T04:55:59.799Z,95062.44
2022-07-30T04:58:30.049Z,95052.44
2022-07-30T05:00:58.216Z,95058.31
2022-07-30T05:03:31.601Z,95053.94
2022-07-30T05:06:00.772Z,95050.63
2022-07-30T05:08:31.553Z,95047.84
2022-07-30T05:11:01.607Z,95045.81
2022-07-30T05:13:34.421Z,95054.44
2022-07-30T05:16:07.103Z,95049.34
2022-07-30T05:18:35.454Z,95049.25
2022-07-30T05:21:02.189Z,95033.97
2022-07-30T05:23:32.548Z,95046.91
2022-07-30T05:26:11.663Z,95054.81
2022-07-30T05:28:48.461Z,95055.47
2022-07-30T05:31:19.863Z,95053.31
2022-07-30T05:33:54.795Z,95054.94
2022-07-30T05:36:25.675Z,95051.34
2022-07-30T05:38:53.992Z,95058.16
2022-07-30T05:41:35.419Z,95050.72
2022-07-30T05:44:11.973Z,95060.16
2022-07-30T05:46:39.169Z,95058.84
2022-07-30T05:49:06.752Z,95062.66
2022-07-30T05:51:33.843Z,95059.84
2022-07-30T05:54:00.681Z,95059.84
2022-07-30T05:56:41.314Z,95050.16
2022-07-30T05:59:17.311Z,95053.53
2022-07-30T06:02:16.544Z,95052.50
2022-07-30T06:05:05.666Z,95055.03
2022-07-30T06:07:34.784Z,95059.13
2022-07-30T06:10:04.819Z,95061.28
2022-07-30T06:12:31.659Z,95049.09
2022-07-30T06:14:59.006Z,95046.03
2022-07-30T06:17:29.855Z,95064.69
2022-07-30T06:20:07.004Z,95062.56
2022-07-30T06:22:47.432Z,95040.94
2022-07-30T06:25:21.848Z,95056.69
2022-07-30T06:27:48.627Z,95059.75
2022-07-30T06:30:16.546Z,95063.28
2022-07-30T06:32:45.646Z,95048.88
2022-07-30T06:35:16.839Z,95051.47
2022-07-30T06:38:06.003Z,95049.94
2022-07-30T06:40:31.946Z,95045.47
2022-07-30T06:43:13.620Z,95028.38
2022-07-30T06:45:57.118Z,95036.94
2022-07-30T06:48:30.902Z,95035.34
2022-07-30T06:50:59.591Z,95038.22
2022-07-30T06:53:27.567Z,95036.16
2022-07-30T06:56:13.503Z,95030.66
2022-07-30T06:58:54.206Z,95030.81
2022-07-30T07:01:39.644Z,95030.44
2022-07-30T07:04:06.984Z,95026.34
2022-07-30T07:06:35.129Z,95016.63
2022-07-30T07:09:02.176Z,95012.47
2022-07-30T07:11:36.230Z,95010.31
2022-07-30T07:14:08.122Z,95007.69
2022-07-30T07:16:36.054Z,95006.09
2022-07-30T07:20:01.213Z,95005.75
2022-07-30T07:22:09.700Z,94999.84
2022-07-30T07:24:37.245Z,94999.06
2022-07-30T07:27:08.108Z,94994.38
2022-07-30T07:30:04.702Z,94993.66
2022-07-30T07:32:33.351Z,94998.88
2022-07-30T07:35:00.136Z,95002.88
2022-07-30T07:37:27.285Z,94991.13
2022-07-30T07:39:55.056Z,94997.50
2022-07-30T07:42:22.093Z,94995.00
2022-07-30T07:44:49.976Z,94996.75
2022-07-30T07:47:17.432Z,94991.41
2022-07-30T07:49:56.259Z,94987.50
2022-07-30T07:52:23.161Z,94989.88
2022-07-30T07:54:49.934Z,94991.41
2022-07-30T07:57:17.882Z,94990.25
2022-07-30T07:59:47.330Z,94995.66
2022-07-30T08:02:21.604Z,94987.56
2022-07-30T08:05:08.171Z,94989.50
2022-07-30T08:07:42.128Z,94981.34
2022-07-30T08:10:28.789Z,94982.13
2022-07-30T08:13:48.788Z,94991.44
2022-07-30T08:16:20.541Z,94986.72
2022-07-30T08:19:16.533Z,94986.78
2022-07-30T08:21:50.481Z,94984.44
2022-07-30T08:24:18.267Z,94981.19
2022-07-30T08:26:45.158Z,94976.44
2022-07-30T08:29:16.989Z,94985.94
2022-07-30T08:31:44.786Z,94975.03
2022-07-30T08:34:13.257Z,94974.75
2022-07-30T08:36:40.879Z,94975.66
2022-07-30T08:39:08.679Z,94974.03
2022-07-30T08:41:37.230Z,94976.28
2022-07-30T08:44:12.526Z,94962.03
2022-07-30T08:46:47.217Z,94960.81
2022-07-30T08:49:33.647Z,94960.81
2022-07-30T08:52:01.291Z,94955.22
2022-07-30T08:54:45.615Z,94945.13
2022-07-30T08:57:12.792Z,94948.97
2022-07-30T09:00:00.277Z,94957.13
2022-07-30T09:02:29.977Z,94940.25
2022-07-30T09:05:04.437Z,94937.69
2022-07-30T09:07:33.762Z,94936.97
2022-07-30T09:10:03.216Z,94935.56
2022-07-30T09:12:31.540Z,94937.03
2022-07-30T09:15:08.252Z,94942.84
2022-07-30T09:17:50.569Z,94928.50
2022-07-30T09:20:18.874Z,94926.84
2022-07-30T09:22:51.726Z,94922.34
2022-07-30T09:25:48.063Z,94916.81
2022-07-30T09:28:34.517Z,94916.19
2022-07-30T09:31:22.975Z,94892.88
2022-07-30T09:34:38.912Z,94910.47
2022-07-30T09:37:18.492Z,94910.22
2022-07-30T09:40:17.062Z,94909.06
2022-07-30T09:43:10.431Z,94901.41
2022-07-30T09:45:57.342Z,94906.97
2022-07-30T09:48:27.334Z,94903.91
2022-07-30T09:50:57.346Z,94904.75
2022-07-30T09:53:25.164Z,94900.56
2022-07-30T09:55:52.350Z,94900.03
2022-07-30T10:01:07.544Z,94896.44
2022-07-30T10:03:55.194Z,94886.66
2022-07-30T10:06:38.125Z,94883.78
2022-07-30T10:09:37.342Z,94891.00
2022-07-30T10:12:06.316Z,94872.78
2022-07-30T10:14:43.981Z,94869.88
2022-07-30T10:17:13.543Z,94864.31
2022-07-30T10:19:47.265Z,94861.97
2022-07-30T10:22:21.704Z,94865.34
2022-07-30T10:25:09.728Z,94862.44
2022-07-30T10:28:03.231Z,94859.59
2022-07-30T10:30:32.664Z,94858.78
2022-07-30T10:33:01.706Z,94847.22
2022-07-30T10:35:34.478Z,94857.16
2022-07-30T10:38:13.827Z,94837.66
2022-07-30T10:41:01.800Z,94847.31
2022-07-30T10:43:37.207Z,94847.13
2022-07-30T10:46:29.261Z,94835.28
2022-07-30T10:49:07.509Z,94833.13
2022-07-30T10:51:55.013Z,94826.72
2022-07-30T10:54:45.330Z,94828.78
2022-07-30T10:57:31.926Z,94838.66
2022-07-30T11:00:00.020Z,94837.13
2022-07-30T11:02:35.842Z,94827.69
2022-07-30T11:05:18.682Z,94821.28
2022-07-30T11:08:42.493Z,94816.28
2022-07-30T11:12:05.417Z,94815.31
2022-07-30T11:14:09.040Z,94806.38
2022-07-30T11:16:35.664Z,94798.41
2022-07-30T11:19:56.508Z,94790.53
2022-07-30T11:22:38.861Z,94792.22
2022-07-30T11:25:13.038Z,94797.84
2022-07-30T11:27:48.860Z,94791.88
2022-07-30T11:30:16.971Z,94785.91
2022-07-30T11:32:56.314Z,94783.31
2022-07-30T11:35:34.374Z,94779.16
2022-07-30T11:38:04.284Z,94768.56
2022-07-30T11:40:33.444Z,94772.09
2022-07-30T11:43:35.190Z,94777.38
2022-07-30T11:46:28.723Z,94763.25
2022-07-30T11:49:02.691Z,94763.28
2022-07-30T11:51:40.266Z,94748.00
2022-07-30T11:54:10.284Z,94746.13
2022-07-30T11:56:37.270Z,94748.34
2022-07-30T11:59:05.856Z,94738.34
2022-07-30T12:01:34.362Z,94744.47
2022-07-30T12:04:05.707Z,94744.47
2022-07-30T12:06:33.539Z,94737.34
2022-07-30T12:09:00.838Z,94729.59
2022-07-30T12:11:35.285Z,94733.34
2022-07-30T12:14:02.781Z,94735.25
2022-07-30T12:16:31.552Z,94731.78
2022-07-30T12:19:06.359Z,94743.81
2022-07-30T12:21:33.866Z,94736.19
2022-07-30T12:24:03.599Z,94722.00
2022-07-30T12:26:32.508Z,94717.75
2022-07-30T12:29:03.149Z,94711.63
2022-07-30T12:31:30.096Z,94711.78
2022-07-30T12:33:58.355Z,94702.91
2022-07-30T12:36:31.738Z,94696.47
2022-07-30T12:39:00.241Z,94698.66
2022-07-30T12:41:47.523Z,94703.03
2022-07-30T12:44:39.238Z,94687.16
2022-07-30T12:47:17.708Z,94682.41
2022-07-30T12:49:48.993Z,94680.84
2022-07-30T12:52:30.835Z,94677.78
2022-07-30T12:55:12.880Z,94658.31
2022-07-30T12:58:07.608Z,94661.00
2022-07-30T13:00:44.195Z,94656.38
2022-07-30T13:03:28.520Z,94659.03
2022-07-30T13:05:57.156Z,94659.59
2022-07-30T13:08:51.994Z,94648.91
2022-07-30T13:11:22.159Z,94647.03
2022-07-30T13:13:50.143Z,94651.63
2022-07-30T13:16:17.812Z,94646.66
2022-07-30T13:18:45.501Z,94635.78
2022-07-30T13:21:12.633Z,94633.34
2022-07-30T13:23:41.028Z,94633.63
2022-07-30T13:26:09.344Z,94630.34
2022-07-30T13:28:36.120Z,94625.66
2022-07-30T13:31:03.059Z,94627.84
2022-07-30T13:33:30.505Z,94630.56
2022-07-30T13:35:57.367Z,94631.16
2022-07-30T13:38:24.160Z,94630.59
2022-07-30T13:40:51.693Z,94646.88
2022-07-30T13:43:18.799Z,94636.97
2022-07-30T13:45:45.743Z,94643.97
2022-07-30T13:48:12.571Z,94641.19
2022-07-30T13:50:39.685Z,94634.59
2022-07-30T13:53:08.690Z,94637.47
2022-07-30T13:55:36.575Z,94633.91
2022-07-30T13:58:04.551Z,94642.53
2022-07-30T14:00:34.311Z,94631.34
2022-07-30T14:03:06.427Z,94644.16
2022-07-30T14:05:36.012Z,94630.22
2022-07-30T14:08:10.784Z,94634.19
2022-07-30T14:10:38.655Z,94641.78
2022-07-30T14:13:06.573Z,94633.97
2022-07-30T14:15:33.926Z,94629.72
2022-07-30T14:18:01.247Z,94630.84
2022-07-30T14:20:29.022Z,94637.47
2022-07-30T14:22:56.356Z,94620.00
2022-07-30T14:25:23.248Z,94612.66
2022-07-30T14:27:49.989Z,94603.16
2022-07-30T14:30:16.655Z,94603.59
2022-07-30T14:32:44.141Z,94601.81
2022-07-30T14:35:10.959Z,94599.66
2022-07-30T14:37:38.976Z,94595.63
2022-07-30T14:40:09.995Z,94604.19
2022-07-30T14:42:36.858Z,94599.84
2022-07-30T14:45:04.970Z,94593.56
2022-07-30T14:47:31.843Z,94588.88
2022-07-30T14:49:59.200Z,94595.06
2022-07-30T14:52:26.058Z,94602.53
2022-07-30T14:54:53.339Z,94599.19
2022-07-30T14:57:20.475Z,94597.34
2022-07-30T14:59:47.223Z,94602.97
2022-07-30T15:02:14.031Z,94603.78
2022-07-30T15:04:40.812Z,94601.81
2022-07-30T15:07:07.524Z,94601.44
2022-07-30T15:09:34.222Z,94607.13
2022-07-30T15:12:23.603Z,94615.78
2022-07-30T15:14:49.905Z,94630.16
2022-07-30T15:17:16.663Z,94656.34
2022-07-30T15:19:50.048Z,94673.47
2022-07-30T15:22:19.387Z,94674.53
2022-07-30T15:24:46.277Z,94682.75
2022-07-30T15:27:13.129Z,94662.66
2022-07-30T15:29:39.982Z,94646.75
2022-07-30T15:32:07.362Z,94623.41
2022-07-30T15:34:34.659Z,94631.94
2022-07-30T15:37:02.842Z,94628.03
2022-07-30T15:39:32.355Z,94628.03
2022-07-30T15:42:00.776Z,94613.03
2022-07-30T15:44:28.285Z,94608.16
2022-07-30T15:46:55.179Z,94612.41
2022-07-30T15:49:23.649Z,94613.19
2022-07-30T15:51:51.785Z,94600.38
2022-07-30T15:54:23.256Z,94602.91
2022-07-30T15:56:51.988Z,94613.50
2022-07-30T15:59:18.744Z,94603.53
2022-07-30T16:01:47.814Z,94611.00
2022-07-30T16:04:18.943Z,94617.06
2022-07-30T16:06:47.520Z,94618.69
2022-07-30T16:09:15.394Z,94633.28
2022-07-30T16:11:43.044Z,94633.47
2022-07-30T16:14:10.486Z,94641.25
2022-07-30T16:16:38.273Z,94658.50
2022-07-30T16:19:05.092Z,94660.41
2022-07-30T16:21:31.764Z,94665.09
2022-07-30T16:23:58.557Z,94658.56
2022-07-30T16:26:25.297Z,94653.09
2022-07-30T16:28:52.052Z,94667.31
2022-07-30T16:31:19.000Z,94662.06
2022-07-30T16:33:45.906Z,94660.78
2022-07-30T16:36:14.308Z,94671.19
2022-07-30T16:38:41.358Z,94660.00
2022-07-30T16:41:13.428Z,94662.59
2022-07-30T16:43:40.699Z,94664.22
2022-07-30T16:46:07.403Z,94660.78
2022-07-30T16:48:34.287Z,94658.78
2022-07-30T16:51:01.016Z,94662.75
2022-07-30T16:53:28.415Z,94635.88
2022-07-30T16:55:57.011Z,94644.75
2022-07-30T16:58:30.722Z,94664.06
2022-07-30T17:00:58.386Z,94666.34
2022-07-30T17:03:25.746Z,94657.81
2022-07-30T17:05:53.345Z,94651.66
2022-07-30T17:08:24.891Z,94665.56
2022-07-30T17:10:53.203Z,94674.34
2022-07-30T17:13:20.776Z,94665.63
2022-07-30T17:15:47.868Z,94671.88
2022-07-30T17:18:15.187Z,94664.69
2022-07-30T17:20:41.966Z,94677.72
2022-07-30T17:23:08.815Z,94693.66
2022-07-30T17:25:35.549Z,94706.56
2022-07-30T17:28:02.852Z,94713.28
2022-07-30T17:30:29.979Z,94728.91
2022-07-30T17:32:56.826Z,94732.38
2022-07-30T17:35:24.808Z,94759.16
2022-07-30T17:37:51.834Z,94760.09
2022-07-30T17:40:27.279Z,94768.53
2022-07-30T17:43:03.137Z,94784.75
2022-07-30T17:45:31.087Z,94785.91
2022-07-30T17:47:58.997Z,94797.88
2022-07-30T17:50:25.736Z,94803.28
2022-07-30T17:52:52.468Z,94786.94
2022-07-30T17:55:19.318Z,94779.34
2022-07-30T17:57:46.169Z,94761.59
2022-07-30T18:00:13.672Z,94763.88
2022-07-30T18:02:40.384Z,94763.47
2022-07-30T18:05:08.547Z,94769.31
2022-07-30T18:07:35.304Z,94749.88
2022-07-30T18:10:02.056Z,94765.00
2022-07-30T18:12:28.908Z,94773.19
2022-07-30T18:14:56.049Z,94783.44
2022-07-30T18:17:22.777Z,94811.97
2022-07-30T18:19:49.542Z,94841.91
2022-07-30T18:22:17.271Z,94877.34
2022-07-30T18:24:56.662Z,94922.19
2022-07-30T18:27:23.747Z,94921.91
2022-07-30T18:29:50.490Z,94942.91
2022-07-30T18:32:17.287Z,94975.22
2022-07-30T18:34:43.980Z,94988.38
2022-07-30T18:37:10.767Z,95016.81
2022-07-30T18:39:38.609Z,95003.16
2022-07-30T18:42:05.923Z,95008.19
2022-07-30T18:44:33.260Z,95020.56
2022-07-30T18:47:00.471Z,95012.72
2022-07-30T18:49:37.407Z,95015.16
2022-07-30T18:52:06.674Z,95009.03
2022-07-30T18:54:34.276Z,95021.91
2022-07-30T18:57:00.955Z,95039.06
2022-07-30T18:59:27.661Z,95055.06
2022-07-30T19:01:54.376Z,95073.31
2022-07-30T19:04:21.198Z,95088.31
2022-07-30T19:06:48.065Z,95103.75
2022-07-30T19:09:17.526Z,95114.59
2022-07-30T19:11:46.178Z,95131.25
2022-07-30T19:14:14.167Z,95135.84
2022-07-30T19:16:42.930Z,95142.44
2022-07-30T19:19:10.419Z,95146.56
2022-07-30T19:21:37.202Z,95159.28
2022-07-30T19:24:04.472Z,95164.47
2022-07-30T19:26:31.172Z,95166.44
2022-07-30T19:28:58.303Z,95190.41
2022-07-30T19:31:25.486Z,95187.53
2022-07-30T19:33:52.900Z,95196.22
2022-07-30T19:36:21.148Z,95183.66
2022-07-30T19:38:49.001Z,95210.28
2022-07-30T19:41:16.502Z,95221.41
2022-07-30T19:43:43.332Z,95217.03
2022-07-30T19:46:24.692Z,95215.53
2022-07-30T19:48:51.477Z,95205.75
2022-07-30T19:51:21.038Z,95201.19
2022-07-30T19:53:52.195Z,95186.41
2022-07-30T19:56:19.504Z,95167.13
2022-07-30T19:58:47.455Z,95149.34
2022-07-30T20:01:15.686Z,95147.47
2022-07-30T20:03:45.286Z,95145.16
2022-07-30T20:06:15.393Z,95169.69
2022-07-30T20:08:44.694Z,95147.16
2022-07-30T20:11:14.067Z,95139.44
2022-07-30T20:13:59.304Z,95128.34
2022-07-30T20:16:26.322Z,95141.72
2022-07-30T20:18:54.476Z,95143.53
2022-07-30T20:21:21.340Z,95129.38
2022-07-30T20:24:08.352Z,95076.75
2022-07-30T20:26:35.769Z,95063.59
2022-07-30T20:29:02.805Z,95040.03
2022-07-30T20:31:36.188Z,95005.78
2022-07-30T20:34:04.833Z,94975.00
2022-07-30T20:36:43.146Z,94923.00
2022-07-30T20:39:10.643Z,94924.50
2022-07-30T20:41:40.292Z,94902.50
2022-07-30T20:44:11.112Z,94935.66
2022-07-30T20:46:40.131Z,94958.59
2022-07-30T20:49:07.038Z,94956.06
2022-07-30T20:51:34.022Z,94965.59
2022-07-30T20:54:01.578Z,94970.25
2022-07-30T20:56:28.524Z,94966.06
2022-07-30T20:58:56.781Z,94950.41
2022-07-30T21:01:23.615Z,94952.97
2022-07-30T21:03:51.389Z,94944.50
2022-07-30T21:06:19.205Z,94941.19
2022-07-30T21:08:45.995Z,94941.94
2022-07-30T21:11:12.846Z,94932.03
2022-07-30T21:13:41.487Z,94931.44
2022-07-30T21:16:16.075Z,94937.31
2022-07-30T21:18:50.484Z,94942.19
2022-07-30T21:21:30.484Z,94936.81
2022-07-30T21:24:06.079Z,94939.75
2022-07-30T21:26:40.443Z,94935.19
2022-07-30T21:29:07.966Z,94940.28
2022-07-30T21:31:56.047Z,94940.16
2022-07-30T21:34:26.081Z,94936.16
2022-07-30T21:36:53.309Z,94929.97
2022-07-30T21:39:19.977Z,94911.75
2022-07-30T21:41:56.033Z,94913.69
2022-07-30T21:44:22.745Z,94888.81
2022-07-30T21:46:50.638Z,94876.97
2022-07-30T21:49:17.609Z,94873.09
2022-07-30T21:51:44.582Z,94894.72
2022-07-30T21:54:11.456Z,94901.00
2022-07-30T21:56:41.517Z,94887.09
2022-07-30T21:59:08.581Z,94890.97
2022-07-30T22:01:38.720Z,94890.66
2022-07-30T22:04:09.232Z,94899.00
2022-07-30T22:06:39.239Z,94921.06
2022-07-30T22:09:19.793Z,94898.94
2022-07-30T22:11:55.618Z,94907.00
2022-07-30T22:14:22.951Z,94901.34
2022-07-30T22:16:52.565Z,94893.47
2022-07-30T22:19:21.763Z,94895.19
2022-07-30T22:21:50.980Z,94902.81
2022-07-30T22:24:28.724Z,94909.56
2022-07-30T22:27:00.985Z,94904.94
2022-07-30T22:29:34.069Z,94908.19
2022-07-30T22:32:18.891Z,94919.38
2022-07-30T22:34:45.656Z,94928.19
2022-07-30T22:37:13.016Z,94913.56
2022-07-30T22:39:50.865Z,94914.81
2022-07-30T22:42:18.655Z,94927.56
2022-07-30T22:44:47.352Z,94928.13
2022-07-30T22:47:20.872Z,94922.50
2022-07-30T22:49:54.558Z,94921.06
2022-07-30T22:52:29.129Z,94928.63
2022-07-30T22:55:09.326Z,94930.22
2022-07-30T22:57:45.085Z,94932.25
2022-07-30T23:00:27.665Z,94933.50
2022-07-30T23:02:55.378Z,94927.34
2022-07-30T23:05:22.962Z,94925.50
2022-07-30T23:07:49.926Z,94929.56
2022-07-30T23:10:18.693Z,94917.53
2022-07-30T23:12:53.599Z,94904.38
2022-07-30T23:15:21.075Z,94903.50
2022-07-30T23:17:48.195Z,94894.56
2022-07-30T23:20:18.173Z,94898.28
2022-07-30T23:22:45.105Z,94901.78
2022-07-30T23:25:12.644Z,94897.66
2022-07-30T23:27:40.151Z,94901.53
2022-07-30T23:30:08.752Z,94898.94
2022-07-30T23:32:36.669Z,94890.19
2022-07-30T23:35:04.228Z,94885.72
2022-07-30T23:37:47.579Z,94896.50
2022-07-30T23:40:17.426Z,94896.25
2022-07-30T23:42:44.433Z,94896.03
2022-07-30T23:45:11.375Z,94907.22
2022-07-30T23:48:00.165Z,94899.53
2022-07-30T23:50:25.397Z,94903.78
2022-07-30T23:52:52.095Z,94921.41
2022-07-30T23:55:19.104Z,94914.03
2022-07-30T23:57:45.764Z,94897.31
